Spokane, WA (99203)

12:39 AM PDT on July 28, 2015 (GMT -0700)
Lincoln Heights | | Change Station
CLOSE
Current Station
Personal Weather Station
Location: Spokane, WA
Elevation: 2208 ft
Nearby Weather Stations

Elev 2208 ft 47.64 °N, 117.36 °W | Updated 46 seconds ago

Clear
Clear
58.8 °F
Feels Like 58.8 °F
N
3.1
Wind Variable Wind from SSE
Gusts 3.8 mph

Today
High -- | Low -- °F
--% Chance of Precip.
Yesterday
High -- | Low -- °F
Precip. -- in
5:21 AM 8:29 PM
Waxing Gibbous, 88% visible
Pressure 30.09 in
Visibility 10.0 miles
Clouds Few 11000 ft
Dew Point 40 °F
Humidity 50%
Rainfall 0.00 in
Snow Depth Not available.
UV 0 out of 12
Pollen 5.00 out of 12
Air Quality Not available.
Flu Activity Not available.
METAR KSFF 280653Z AUTO 03003KT 10SM FEW110 15/06 A3012 RMK AO2 SLP190 T01500056

More Conditions Fewer Conditions

Pressure 30.09 in
Visibility 10.0 miles
Clouds Few 11000 ft
Dew Point 40 °F
Humidity 50%
Rainfall 0.00 in
Snow Depth Not available.
UV 0 out of 12
Pollen 5.00 out of 12
Air Quality Not available.
Flu Activity Not available.
METAR KSFF 280653Z AUTO 03003KT 10SM FEW110 15/06 A3012 RMK AO2 SLP190 T01500056

More Conditions Fewer Conditions

10-Day Weather Forecast

×

Almanac

Astronomy

Jul. 28, 2015 Rise Set
Actual Time
Civil Twilight
Nautical Twilight
Astronomical Twilight
Moon
Length of Visible Light
Length of Day
Tomorrow will be .
, % of the Moon is Illuminated

Today's Extremes

State Highs State Lows

Community

WunderPhotos

Upload Photos

1,841,796 photos uploaded!

WunderBlogs® & News

Nearby

Air Quality

  Air Quality AQ Index Pollutant
Not available.

Snow Depth

Station Depth Elevation

Earthquake Activity

City Distance Mag. Time & Date
Minimum magnitude displayed is 2.5.

Coastal Water Temperatures

Place Temperature

Stations

Nearby Weather Stations

Station Location Temp. Windchill Dew Point Humidity Wind Precip. Elev Updated Type